Terminal Aerodrome Forecast
Issued by NWS

Home | Current Version | Previous Version | Text Only | Print | Product List | Glossary On
Versions: 1 2 3 4 5 6 7 8 9 10 11 12 13 14 15 16 17 18 19 20 21 22 23 24 25 26 27
000
FTUS44 KSJT 041900 AAB
TAFSOA
TAF AMD
KSOA 041932Z 0420/0518 02010G16KT P6SM OVC012
     FM042200 02015G25KT 5SM -RA BR OVC007
     FM050200 02020G30KT 4SM -FZRA BR OVC006
     FM050500 02018G27KT 4SM -FZRAPL BR OVC006
     FM051500 02016KT P6SM OVC050=

USA.gov is the U.S. government's official web portal to all federal, state and local government web resources and services.